Time;durP1;ratioP1;P1;durP2;ratioP2;P2;SDS_P1;SDS_P2;PMS_P1;PMS_P2;Temp;Humidity;BMP_temperature;BMP_pressure;BME280_temperature;BME280_humidity;BME280_pressure;Samples;Min_cycle;Max_cycle;Signal;HPM_P1;HPM_P2
2021/04/10 00:01:24;;;;;;;9.32;0.73;;;6.10;99.90;;;;;;6126642;23;20085;-78
2021/04/10 00:03:50;;;;;;;6.88;0.70;;;6.50;99.90;;;;;;6127569;23;20006;-78
2021/04/10 00:06:15;;;;;;;6.15;0.57;;;6.10;99.90;;;;;;6126736;23;20426;-78
2021/04/10 00:08:41;;;;;;;3.40;0.73;;;6.10;99.90;;;;;;6126590;23;20081;-77
2021/04/10 00:11:07;;;;;;;9.02;0.63;;;6.10;99.90;;;;;;6127327;23;20002;-78
2021/04/10 00:13:33;;;;;;;5.40;1.00;;;6.10;99.90;;;;;;6103484;23;20438;-78
2021/04/10 00:15:58;;;;;;;1.45;0.40;;;6.10;99.90;;;;;;6128676;23;20430;-78
2021/04/10 00:18:24;;;;;;;3.50;0.28;;;6.10;99.90;;;;;;6129575;23;20002;-78
2021/04/10 00:20:50;;;;;;;5.85;0.60;;;6.10;99.90;;;;;;6130439;23;20060;-78
2021/04/10 00:23:15;;;;;;;7.40;0.38;;;6.00;99.90;;;;;;6128352;23;20006;-78
2021/04/10 00:25:41;;;;;;;4.40;0.50;;;6.00;99.90;;;;;;6126313;23;20002;-77
2021/04/10 00:28:07;;;;;;;3.78;0.10;;;6.00;99.90;;;;;;6126368;23;20061;-78
2021/04/10 00:30:32;;;;;;;7.43;0.35;;;6.00;99.90;;;;;;6128519;23;20005;-77
2021/04/10 00:32:58;;;;;;;5.78;0.93;;;6.00;99.90;;;;;;6127282;23;20068;-78
2021/04/10 00:35:24;;;;;;;7.05;0.55;;;6.00;99.90;;;;;;6128364;23;20012;-79
2021/04/10 00:37:49;;;;;;;2.78;1.10;;;5.90;99.90;;;;;;6127304;23;20073;-77
2021/04/10 00:40:15;;;;;;;4.35;0.60;;;5.90;99.90;;;;;;6127350;23;20006;-77
2021/04/10 00:42:41;;;;;;;6.85;0.50;;;5.90;99.90;;;;;;6126666;23;20012;-77
2021/04/10 00:45:08;;;;;;;6.57;0.50;;;5.90;99.90;;;;;;6124391;23;20377;-78
2021/04/10 00:47:34;;;;;;;10.57;2.22;;;5.80;99.90;;;;;;6125754;23;20033;-77
2021/04/10 00:50:00;;;;;;;4.65;0.57;;;5.80;99.90;;;;;;6124235;23;20009;-78
2021/04/10 00:52:26;;;;;;;2.97;0.40;;;5.70;99.90;;;;;;6100131;23;20385;-77
2021/04/10 00:54:52;;;;;;;5.00;0.55;;;5.70;99.90;;;;;;6125863;23;20006;-77
2021/04/10 00:57:19;;;;;;;4.40;0.20;;;5.70;99.90;;;;;;6123813;23;20002;-78
2021/04/10 00:59:45;;;;;;;1.90;0.28;;;5.70;99.90;;;;;;6125657;23;20002;-77
2021/04/10 01:02:11;;;;;;;6.70;1.02;;;5.70;99.90;;;;;;6125312;23;20006;-77
2021/04/10 01:04:37;;;;;;;4.03;0.20;;;5.70;99.90;;;;;;6125797;23;20006;-77
2021/04/10 01:07:03;;;;;;;6.07;1.25;;;5.60;99.90;;;;;;6099426;23;20064;-78
2021/04/10 01:09:29;;;;;;;2.20;0.35;;;5.60;99.90;;;;;;6125880;23;20009;-77
2021/04/10 01:12:04;;;;;;;6.90;0.30;;;5.60;99.90;;;;;;6125635;23;20005;-77
2021/04/10 01:14:40;;;;;;;6.13;0.28;;;5.60;99.90;;;;;;6125517;23;20002;-77
2021/04/10 01:17:12;;;;;;;3.28;0.98;;;5.90;99.90;;;;;;6101715;23;20077;-77
2021/04/10 01:20:05;;;;;;;3.97;0.35;;;5.60;99.90;;;;;;6125483;23;20006;-77
2021/04/10 01:23:07;;;;;;;3.72;0.10;;;5.60;99.90;;;;;;6126118;23;20002;-76
2021/04/10 01:25:56;;;;;;;4.32;0.38;;;5.60;99.90;;;;;;6124218;23;20097;-77
2021/04/10 01:28:43;;;;;;;7.20;1.02;;;5.50;99.90;;;;;;6126433;23;20003;-79
2021/04/10 01:31:09;;;;;;;5.93;0.35;;;5.60;99.90;;;;;;6126626;23;20080;-77
2021/04/10 01:33:42;;;;;;;9.35;0.55;;;5.60;99.90;;;;;;6126368;23;20034;-78
2021/04/10 01:36:12;;;;;;;3.15;0.88;;;5.50;99.90;;;;;;6127166;23;20029;-78
2021/04/10 01:38:40;;;;;;;9.77;0.88;;;5.60;99.90;;;;;;6100317;23;20002;-78
2021/04/10 01:41:08;;;;;;;13.45;0.65;;;5.60;99.90;;;;;;6127112;23;20460;-78
2021/04/10 01:43:34;;;;;;;3.70;0.40;;;5.60;99.90;;;;;;6114063;23;552336;-78
2021/04/10 01:46:02;;;;;;;6.35;0.50;;;8.10;99.90;;;;;;6130798;23;20029;-77
2021/04/10 01:48:30;;;;;;;4.57;0.80;;;9.30;99.90;;;;;;6131382;23;20002;-78
2021/04/10 01:50:57;;;;;;;8.38;0.47;;;5.60;99.90;;;;;;6157791;23;20221;-77
2021/04/10 01:53:23;;;;;;;4.30;0.75;;;5.30;99.90;;;;;;6129507;23;20060;-78
2021/04/10 01:55:50;;;;;;;1.63;0.47;;;5.10;99.90;;;;;;6157116;23;19998;-77
2021/04/10 01:58:17;;;;;;;9.90;0.65;;;5.60;99.90;;;;;;6131210;23;20052;-79
2021/04/10 02:00:44;;;;;;;12.98;0.95;;;5.70;99.90;;;;;;6156812;23;20022;-79
2021/04/10 02:03:11;;;;;;;5.47;1.02;;;7.10;99.90;;;;;;6157022;23;20079;-78
2021/04/10 02:05:38;;;;;;;5.10;0.35;;;5.40;99.90;;;;;;6157744;23;19993;-79
2021/04/10 02:08:06;;;;;;;4.25;0.45;;;5.60;99.90;;;;;;6157842;23;20002;-78
2021/04/10 02:10:32;;;;;;;6.32;0.65;;;5.70;99.90;;;;;;6131720;23;20005;-80
2021/04/10 02:12:59;;;;;;;4.97;1.10;;;5.70;99.90;;;;;;6158083;23;20036;-78
2021/04/10 02:15:24;;;;;;;4.20;0.30;;;5.70;99.90;;;;;;6132750;23;20005;-77
2021/04/10 02:17:51;;;;;;;7.10;0.45;;;5.70;99.90;;;;;;6157474;23;20132;-77
2021/04/10 02:20:17;;;;;;;6.82;1.00;;;5.80;99.90;;;;;;6158551;23;20001;-79
2021/04/10 02:22:49;;;;;;;5.43;0.57;;;5.80;99.90;;;;;;6131210;23;20029;-76
2021/04/10 02:25:16;;;;;;;4.05;0.50;;;5.80;99.90;;;;;;6156406;23;20413;-76
2021/04/10 02:27:42;;;;;;;5.82;0.15;;;5.70;99.90;;;;;;6157722;23;20028;-77
2021/04/10 02:30:08;;;;;;;7.30;1.05;;;5.80;99.90;;;;;;6131235;23;20002;-76
2021/04/10 02:32:38;;;;;;;5.20;0.43;;;5.80;99.90;;;;;;6159044;23;20088;-78
2021/04/10 02:35:22;;;;;;;7.70;0.60;;;5.80;99.90;;;;;;6133184;23;20025;-76
2021/04/10 02:37:49;;;;;;;4.95;0.40;;;5.80;99.90;;;;;;6134236;23;20005;-77
2021/04/10 02:40:18;;;;;;;4.70;0.22;;;5.80;99.90;;;;;;6159537;23;20009;-76
2021/04/10 02:42:46;;;;;;;3.33;0.47;;;5.80;99.90;;;;;;6132518;23;20021;-76
2021/04/10 02:45:15;;;;;;;5.40;0.45;;;5.70;99.90;;;;;;6158164;23;20425;-77
2021/04/10 02:47:44;;;;;;;8.77;0.25;;;5.80;99.90;;;;;;6136763;23;20033;-77
2021/04/10 02:50:11;;;;;;;5.25;0.50;;;5.80;99.90;;;;;;6132901;23;20345;-78
2021/04/10 02:52:43;;;;;;;5.40;0.10;;;5.90;99.90;;;;;;6159814;23;20001;-78
2021/04/10 02:55:10;;;;;;;3.67;0.30;;;5.90;99.90;;;;;;6158894;23;20505;-77
2021/04/10 02:57:37;;;;;;;5.15;0.20;;;5.90;99.90;;;;;;6160418;23;20005;-77
2021/04/10 03:00:07;;;;;;;6.88;0.50;;;5.90;99.90;;;;;;6160196;23;20009;-78
2021/04/10 03:02:35;;;;;;;6.45;0.45;;;5.90;99.90;;;;;;6158891;23;20032;-77
2021/04/10 03:05:02;;;;;;;8.50;1.10;;;5.70;99.90;;;;;;6132742;23;20048;-79
2021/04/10 03:07:28;;;;;;;13.18;0.95;;;5.30;99.90;;;;;;6160591;23;20005;-79
2021/04/10 03:09:54;;;;;;;6.07;0.35;;;5.80;99.90;;;;;;6160071;23;19997;-78
2021/04/10 03:12:21;;;;;;;5.55;1.63;;;5.90;99.90;;;;;;6161977;23;20002;-78
2021/04/10 03:14:47;;;;;;;6.25;0.77;;;5.90;99.90;;;;;;6156769;23;20013;-80
2021/04/10 03:17:15;;;;;;;8.88;0.38;;;5.90;99.90;;;;;;6160095;23;20002;-78
2021/04/10 03:19:42;;;;;;;9.32;0.60;;;5.90;99.90;;;;;;6160307;23;20085;-79
2021/04/10 03:22:09;;;;;;;8.43;0.40;;;5.90;99.90;;;;;;6134281;23;20136;-78
2021/04/10 03:24:35;;;;;;;10.20;0.95;;;5.90;99.90;;;;;;6160201;23;20057;-80
2021/04/10 03:27:01;;;;;;;5.68;0.38;;;5.80;99.90;;;;;;6159599;23;20004;-76
2021/04/10 03:29:27;;;;;;;5.15;0.52;;;5.90;99.90;;;;;;6158267;23;19997;-79
2021/04/10 03:31:55;;;;;;;5.60;1.08;;;5.80;99.90;;;;;;6131128;23;19998;-78
2021/04/10 03:34:21;;;;;;;4.45;0.40;;;5.80;99.90;;;;;;6131401;23;20084;-79
2021/04/10 03:36:46;;;;;;;8.98;0.70;;;5.90;99.90;;;;;;6131187;23;19998;-78
2021/04/10 03:39:12;;;;;;;5.75;0.30;;;5.90;99.90;;;;;;6131461;23;20104;-79
2021/04/10 03:41:38;;;;;;;7.95;1.10;;;5.90;99.90;;;;;;6157092;23;20056;-78
2021/04/10 03:44:03;;;;;;;6.95;0.80;;;5.80;99.90;;;;;;6157323;23;20056;-78
2021/04/10 03:46:29;;;;;;;6.28;0.45;;;5.80;99.90;;;;;;6157349;23;20062;-78
2021/04/10 03:48:54;;;;;;;6.32;0.70;;;5.80;99.90;;;;;;6136097;23;20001;-80
2021/04/10 03:56:28;;;;;;;2.78;0.20;;;5.80;99.90;;;;;;6158367;23;20456;-78
2021/04/10 03:58:54;;;;;;;6.53;0.43;;;6.00;99.90;;;;;;6156411;23;20029;-78
2021/04/10 04:01:19;;;;;;;5.30;0.82;;;5.40;99.90;;;;;;6157648;23;19997;-77
2021/04/10 04:03:45;;;;;;;5.80;0.30;;;5.80;99.90;;;;;;6133339;23;20017;-78
2021/04/10 04:06:11;;;;;;;8.35;0.57;;;5.80;99.90;;;;;;6158567;23;20002;-78
2021/04/10 04:08:36;;;;;;;8.13;0.55;;;5.70;99.90;;;;;;6158228;23;20048;-79
2021/04/10 04:11:03;;;;;;;6.75;0.50;;;5.80;99.90;;;;;;6131062;23;20032;-77
2021/04/10 04:13:28;;;;;;;6.40;1.08;;;5.80;99.90;;;;;;6132121;23;20068;-78
2021/04/10 04:15:54;;;;;;;6.72;0.52;;;5.70;99.90;;;;;;6157702;23;20005;-77
2021/04/10 04:18:19;;;;;;;5.38;0.88;;;6.80;99.90;;;;;;6131300;23;20012;-78
2021/04/10 04:20:45;;;;;;;5.95;1.85;;;5.70;99.90;;;;;;6157547;23;20006;-78
2021/04/10 04:23:10;;;;;;;3.90;0.50;;;5.80;99.90;;;;;;6156980;23;20037;-78
2021/04/10 04:25:36;;;;;;;3.55;0.38;;;5.80;99.90;;;;;;6156866;23;19998;-78
2021/04/10 04:28:02;;;;;;;5.82;1.10;;;6.00;99.90;;;;;;6156727;23;20006;-78
2021/04/10 04:30:28;;;;;;;3.38;0.68;;;5.70;99.90;;;;;;6155411;23;20017;-77
2021/04/10 04:32:53;;;;;;;6.63;0.68;;;5.70;99.90;;;;;;6130609;23;20024;-77
2021/04/10 04:35:19;;;;;;;4.15;1.23;;;5.70;99.90;;;;;;6156263;23;20080;-77
2021/04/10 04:37:44;;;;;;;4.43;0.63;;;5.70;99.90;;;;;;6156800;23;20006;-77
2021/04/10 04:40:12;;;;;;;5.00;0.50;;;5.70;99.90;;;;;;6156448;23;20445;-77
2021/04/10 04:42:37;;;;;;;5.50;0.32;;;5.70;99.90;;;;;;6156554;23;20001;-78
2021/04/10 04:45:05;;;;;;;8.60;0.32;;;5.70;99.90;;;;;;6130726;23;20005;-77
2021/04/10 04:47:30;;;;;;;13.18;1.83;;;5.70;99.90;;;;;;6155053;23;19998;-77
2021/04/10 04:49:56;;;;;;;6.70;0.35;;;5.70;99.90;;;;;;6156476;23;20002;-77
2021/04/10 04:52:22;;;;;;;5.65;0.52;;;5.70;99.90;;;;;;6155215;23;20009;-78
2021/04/10 04:54:47;;;;;;;12.48;0.98;;;5.70;99.90;;;;;;6156252;23;20009;-77
2021/04/10 04:57:12;;;;;;;4.43;0.45;;;5.70;99.90;;;;;;6131278;23;20010;-78
2021/04/10 04:59:38;;;;;;;3.10;0.98;;;5.70;99.90;;;;;;6157310;23;20336;-78
2021/04/10 05:02:03;;;;;;;7.03;0.35;;;5.60;99.90;;;;;;6130756;23;20093;-78
2021/04/10 05:04:29;;;;;;;3.60;0.32;;;5.70;99.90;;;;;;6157452;23;20005;-79
2021/04/10 05:06:55;;;;;;;3.70;0.20;;;5.60;99.90;;;;;;6131722;23;19998;-78
2021/04/10 05:09:20;;;;;;;7.97;0.32;;;5.60;99.90;;;;;;6130641;23;20012;-78
2021/04/10 05:11:46;;;;;;;4.60;0.30;;;5.60;99.90;;;;;;6157118;23;20008;-78
2021/04/10 05:14:11;;;;;;;3.83;0.60;;;5.70;99.90;;;;;;6130923;23;20060;-79
2021/04/10 05:16:37;;;;;;;3.20;0.55;;;5.70;99.90;;;;;;6156606;23;20069;-78
2021/04/10 05:19:03;;;;;;;3.75;0.43;;;5.70;99.90;;;;;;6156833;23;20009;-78
2021/04/10 05:21:28;;;;;;;4.38;0.28;;;5.70;99.90;;;;;;6157134;23;20060;-79
2021/04/10 05:23:54;;;;;;;4.63;0.20;;;5.70;99.90;;;;;;6157673;23;20002;-79
2021/04/10 05:26:19;;;;;;;2.67;0.20;;;5.70;99.90;;;;;;6158110;23;19998;-79
2021/04/10 05:28:45;;;;;;;4.85;0.28;;;5.70;99.90;;;;;;6157138;23;20006;-78
2021/04/10 05:31:11;;;;;;;7.43;0.77;;;5.70;99.90;;;;;;6131524;23;20380;-76
2021/04/10 05:33:36;;;;;;;4.70;0.20;;;5.70;99.90;;;;;;6156671;23;20028;-77
2021/04/10 05:36:03;;;;;;;3.33;0.20;;;5.70;99.90;;;;;;6129612;23;20009;-76
2021/04/10 05:38:28;;;;;;;3.75;0.17;;;5.60;99.90;;;;;;6156180;23;20378;-76
2021/04/10 05:40:54;;;;;;;2.55;0.45;;;5.70;99.90;;;;;;6155816;23;20005;-76
2021/04/10 05:43:20;;;;;;;6.43;0.45;;;5.70;99.90;;;;;;6156279;23;20002;-77
2021/04/10 05:45:46;;;;;;;4.28;0.28;;;5.70;99.90;;;;;;6154294;23;20006;-77
2021/04/10 05:48:11;;;;;;;4.25;0.63;;;5.70;99.90;;;;;;6156116;23;20064;-77
2021/04/10 05:50:37;;;;;;;6.90;0.73;;;5.70;99.90;;;;;;6156682;23;19997;-77
2021/04/10 05:53:03;;;;;;;7.60;0.55;;;5.70;99.90;;;;;;6129921;23;20012;-77
2021/04/10 05:55:28;;;;;;;4.40;0.20;;;5.80;99.90;;;;;;6129653;23;20322;-78
2021/04/10 05:57:54;;;;;;;2.63;0.20;;;5.80;99.90;;;;;;6130128;23;20003;-77
2021/04/10 06:00:20;;;;;;;8.43;0.30;;;5.80;99.90;;;;;;6130518;23;20006;-78
2021/04/10 06:02:54;;;;;;;3.30;0.22;;;5.90;99.90;;;;;;6130248;23;20009;-78
2021/04/10 06:05:21;;;;;;;8.68;0.50;;;5.80;99.90;;;;;;6156543;23;20026;-77
2021/04/10 06:07:47;;;;;;;6.80;0.32;;;5.90;99.90;;;;;;6132729;23;19997;-78
2021/04/10 06:10:20;;;;;;;3.38;0.10;;;5.90;99.90;;;;;;6160041;23;20033;-79
2021/04/10 06:12:47;;;;;;;6.90;0.73;;;5.90;99.90;;;;;;6158727;23;20044;-77
2021/04/10 06:15:15;;;;;;;1.48;0.55;;;5.90;99.90;;;;;;6161492;23;20060;-80
2021/04/10 06:17:41;;;;;;;1.98;0.00;;;6.00;99.90;;;;;;6135276;23;20005;-79
2021/04/10 06:20:08;;;;;;;4.03;0.30;;;6.10;99.90;;;;;;6159830;23;20084;-77
2021/04/10 06:22:34;;;;;;;10.73;1.70;;;6.10;99.90;;;;;;6157901;23;20012;-78
2021/04/10 06:25:00;;;;;;;8.52;0.20;;;6.10;99.90;;;;;;6134519;23;20001;-78
2021/04/10 06:27:26;;;;;;;2.45;0.30;;;6.20;99.90;;;;;;6161043;23;20302;-79
2021/04/10 06:29:51;;;;;;;10.23;1.10;;;6.20;99.90;;;;;;6160161;23;20001;-78
2021/04/10 06:32:17;;;;;;;5.63;0.40;;;6.20;99.90;;;;;;6133278;23;20050;-78
2021/04/10 06:34:45;;;;;;;6.38;0.70;;;6.20;99.90;;;;;;6132658;23;20006;-77
2021/04/10 06:37:11;;;;;;;3.75;0.60;;;9.00;99.90;;;;;;6159928;23;20001;-78
2021/04/10 06:39:37;;;;;;;10.02;0.88;;;6.30;99.90;;;;;;6134270;23;20009;-80
2021/04/10 06:42:05;;;;;;;2.70;0.22;;;6.30;99.90;;;;;;6133627;23;20069;-78
2021/04/10 06:44:31;;;;;;;6.75;0.77;;;6.40;99.90;;;;;;6160925;23;19998;-77
2021/04/10 06:47:00;;;;;;;2.47;0.20;;;6.50;99.90;;;;;;6159252;23;20009;-78
2021/04/10 06:49:28;;;;;;;5.93;0.85;;;6.60;99.90;;;;;;6133375;23;20005;-77
2021/04/10 06:51:55;;;;;;;6.77;0.20;;;6.60;99.90;;;;;;6160392;23;20004;-78
2021/04/10 06:54:23;;;;;;;3.45;0.10;;;6.70;99.90;;;;;;6158822;23;20236;-79
2021/04/10 06:57:01;;;;;;;8.52;0.30;;;6.70;99.90;;;;;;6161237;23;20401;-78
2021/04/10 06:59:39;;;;;;;4.63;1.17;;;6.70;99.90;;;;;;6157788;23;20442;-77
2021/04/10 07:02:10;;;;;;;3.17;0.30;;;6.70;99.90;;;;;;6159629;23;20082;-78
2021/04/10 07:04:37;;;;;;;4.15;0.30;;;6.70;99.90;;;;;;6159718;23;20056;-78
2021/04/10 07:07:03;;;;;;;4.93;0.32;;;6.80;99.90;;;;;;6160840;23;20061;-77
2021/04/10 07:09:29;;;;;;;2.78;0.43;;;6.90;99.90;;;;;;6131484;23;20036;-77
2021/04/10 07:11:55;;;;;;;3.08;0.08;;;6.90;99.90;;;;;;6157573;23;19998;-77
2021/04/10 07:14:21;;;;;;;2.08;0.55;;;7.00;99.90;;;;;;6157504;23;20002;-77
2021/04/10 07:16:46;;;;;;;5.13;0.20;;;7.00;99.90;;;;;;6130705;23;20048;-77
2021/04/10 07:19:13;;;;;;;4.20;0.63;;;7.20;99.90;;;;;;6157158;23;20005;-77
2021/04/10 07:21:39;;;;;;;9.93;0.52;;;7.30;99.90;;;;;;6155412;23;20005;-77
2021/04/10 07:24:06;;;;;;;3.53;0.70;;;7.40;99.90;;;;;;6155376;23;20006;-78
2021/04/10 07:26:52;;;;;;;6.05;0.50;;;7.40;99.90;;;;;;6158187;23;20077;-78
2021/04/10 07:29:29;;;;;;;6.90;0.28;;;7.40;99.90;;;;;;6157771;23;20002;-78
2021/04/10 07:31:55;;;;;;;3.67;0.17;;;7.60;99.90;;;;;;6158509;23;20464;-77
2021/04/10 07:34:21;;;;;;;2.40;0.10;;;7.60;99.90;;;;;;6132252;23;20005;-78
2021/04/10 07:37:02;;;;;;;3.90;0.73;;;7.70;99.90;;;;;;6162224;23;20002;-78
2021/04/10 07:39:28;;;;;;;6.55;0.50;;;7.80;99.90;;;;;;6163682;23;20004;-78
2021/04/10 07:41:58;;;;;;;6.32;0.68;;;7.90;99.90;;;;;;6157892;23;20022;-78
2021/04/10 07:44:39;;;;;;;3.22;0.30;;;9.20;99.90;;;;;;6158233;23;20046;-78
2021/04/10 07:47:06;;;;;;;2.95;0.50;;;8.00;99.90;;;;;;6156477;23;20190;-79
2021/04/10 07:49:32;;;;;;;3.03;0.40;;;8.00;99.90;;;;;;6161043;23;20027;-78
2021/04/10 07:52:04;;;;;;;7.70;0.55;;;9.50;99.90;;;;;;6134263;23;20360;-78
2021/04/10 07:54:36;;;;;;;6.30;0.10;;;8.10;99.90;;;;;;6132644;23;20012;-78
2021/04/10 07:57:04;;;;;;;4.88;0.25;;;8.20;99.90;;;;;;6135613;23;20436;-78
2021/04/10 07:59:35;;;;;;;5.00;0.20;;;10.20;99.90;;;;;;6161143;23;20369;-79
2021/04/10 08:02:12;;;;;;;4.03;0.52;;;8.30;99.90;;;;;;6135884;23;20006;-79
2021/04/10 08:04:53;;;;;;;9.13;0.63;;;8.30;99.90;;;;;;6161298;23;19997;-79
2021/04/10 08:07:27;;;;;;;4.07;0.45;;;8.50;99.90;;;;;;6161531;23;19998;-80
2021/04/10 08:10:05;;;;;;;3.28;0.13;;;8.60;99.90;;;;;;6134899;23;20008;-78
2021/04/10 08:12:35;;;;;;;2.15;0.43;;;8.70;99.90;;;;;;6159138;23;20005;-78
2021/04/10 08:15:03;;;;;;;3.83;0.20;;;8.70;99.90;;;;;;6134854;23;20017;-79
2021/04/10 08:17:55;;;;;;;4.05;0.10;;;8.80;99.90;;;;;;6135031;23;20006;-78
2021/04/10 08:20:29;;;;;;;3.10;0.60;;;8.80;99.90;;;;;;6126951;23;20060;-80
2021/04/10 08:23:22;;;;;;;7.30;0.43;;;8.90;99.90;;;;;;6160152;23;20089;-80
2021/04/10 08:25:48;;;;;;;5.63;0.00;;;9.00;99.00;;;;;;6159483;23;20041;-78
2021/04/10 08:28:15;;;;;;;4.53;0.60;;;9.10;98.20;;;;;;6161120;23;19997;-79
2021/04/10 08:30:45;;;;;;;2.88;0.22;;;9.10;95.40;;;;;;6134698;23;20006;-78
2021/04/10 08:33:10;;;;;;;6.78;0.52;;;9.10;96.30;;;;;;6158927;23;20094;-78
2021/04/10 08:35:37;;;;;;;4.05;0.20;;;9.00;94.70;;;;;;6159515;23;20381;-78
2021/04/10 08:38:05;;;;;;;2.38;0.00;;;9.00;93.80;;;;;;6159337;23;20093;-78
2021/04/10 08:40:33;;;;;;;5.80;0.33;;;9.00;93.40;;;;;;6158712;23;20005;-78
2021/04/10 08:43:05;;;;;;;3.05;0.10;;;9.00;93.90;;;;;;6160062;23;20009;-78
2021/04/10 08:45:33;;;;;;;7.78;1.02;;;9.00;94.00;;;;;;6131739;23;20005;-78
2021/04/10 08:48:09;;;;;;;2.63;0.57;;;8.90;92.90;;;;;;6157223;23;20349;-78
2021/04/10 08:50:37;;;;;;;8.68;0.17;;;8.90;93.80;;;;;;6157883;23;20005;-78
2021/04/10 08:53:06;;;;;;;4.50;0.10;;;9.00;94.80;;;;;;6159417;23;20036;-78
2021/04/10 08:55:32;;;;;;;2.72;0.28;;;9.10;94.00;;;;;;6158576;23;20002;-80
2021/04/10 08:57:57;;;;;;;2.28;0.15;;;9.20;92.80;;;;;;6159321;23;20012;-79
2021/04/10 09:00:30;;;;;;;1.08;0.00;;;9.30;93.30;;;;;;6159749;23;20421;-80
2021/04/10 09:03:00;;;;;;;7.35;0.52;;;9.40;91.80;;;;;;6130504;23;20005;-77
2021/04/10 09:05:52;;;;;;;2.67;0.35;;;9.40;92.40;;;;;;6130690;23;20457;-76
2021/04/10 09:08:27;;;;;;;4.43;0.50;;;9.40;91.50;;;;;;6150246;23;20077;-77
2021/04/10 09:10:55;;;;;;;4.15;0.00;;;9.40;91.80;;;;;;6157247;23;20001;-77
2021/04/10 09:13:22;;;;;;;4.38;0.00;;;9.40;92.10;;;;;;6129711;23;20021;-75
2021/04/10 09:15:47;;;;;;;2.65;0.08;;;9.30;91.20;;;;;;6156651;23;20002;-75
2021/04/10 09:18:14;;;;;;;6.20;0.88;;;9.00;91.80;;;;;;6154922;23;21053;-76
2021/04/10 09:20:46;;;;;;;2.55;0.40;;;8.90;92.00;;;;;;6130885;23;20012;-74
2021/04/10 09:23:17;;;;;;;4.43;0.57;;;9.20;91.50;;;;;;6157082;23;20013;-73
2021/04/10 09:26:04;;;;;;;6.15;0.80;;;9.50;90.80;;;;;;6130272;23;20005;-74
2021/04/10 09:28:30;;;;;;;2.35;0.00;;;9.50;90.50;;;;;;6129673;23;20001;-75
2021/04/10 09:30:55;;;;;;;6.13;0.25;;;11.70;91.00;;;;;;6158116;23;20006;-77
2021/04/10 09:33:32;;;;;;;3.17;0.40;;;9.50;91.20;;;;;;6128661;23;20033;-76
2021/04/10 09:36:00;;;;;;;3.15;0.10;;;9.40;90.90;;;;;;6156691;23;20013;-73
2021/04/10 09:38:42;;;;;;;2.70;0.00;;;9.60;90.40;;;;;;6156437;23;20433;-74
2021/04/10 09:41:08;;;;;;;2.10;0.20;;;9.70;90.00;;;;;;6130983;23;20002;-77
2021/04/10 09:43:34;;;;;;;3.25;0.47;;;9.70;89.30;;;;;;6157906;23;20009;-75
2021/04/10 09:46:00;;;;;;;5.20;0.38;;;9.80;88.30;;;;;;6130739;23;20008;-75
2021/04/10 09:48:28;;;;;;;3.38;0.20;;;9.80;88.20;;;;;;6131082;23;20021;-78
2021/04/10 09:50:53;;;;;;;2.72;0.00;;;12.30;89.00;;;;;;6158360;23;20069;-78
2021/04/10 09:53:23;;;;;;;3.70;0.00;;;9.80;87.70;;;;;;6157498;23;20002;-77
2021/04/10 09:55:56;;;;;;;1.98;0.20;;;9.80;85.70;;;;;;6157266;23;20012;-74
2021/04/10 09:58:23;;;;;;;2.58;0.30;;;9.80;86.10;;;;;;6156946;23;20009;-75
2021/04/10 10:00:50;;;;;;;2.47;0.00;;;9.80;87.10;;;;;;6157280;23;20444;-75
2021/04/10 10:03:18;;;;;;;1.92;0.47;;;9.80;87.90;;;;;;6131606;23;20002;-75
2021/04/10 10:05:46;;;;;;;4.45;0.63;;;9.90;86.50;;;;;;6131267;23;20004;-75
2021/04/10 10:08:19;;;;;;;3.20;0.00;;;9.90;86.40;;;;;;6156608;23;20004;-75
2021/04/10 10:10:53;;;;;;;4.72;0.65;;;9.90;86.20;;;;;;6157856;23;20005;-74
2021/04/10 10:13:21;;;;;;;4.78;0.30;;;9.90;86.20;;;;;;6157904;23;20044;-78
2021/04/10 10:15:49;;;;;;;2.13;0.10;;;9.80;86.80;;;;;;6131429;23;20005;-75
2021/04/10 10:18:38;;;;;;;5.63;0.00;;;9.80;86.10;;;;;;6155807;23;20002;-75
2021/04/10 10:21:05;;;;;;;;;;;9.80;87.30;;;;;;6130871;23;20006;-74
2021/04/10 10:23:54;;;;;;;5.45;1.15;;;9.80;86.50;;;;;;6156935;23;20217;-76
2021/04/10 10:26:36;;;;;;;1.92;0.00;;;9.80;88.60;;;;;;6156403;23;20038;-75
2021/04/10 10:29:08;;;;;;;4.70;0.57;;;9.80;90.30;;;;;;6157495;23;20413;-74
2021/04/10 10:32:00;;;;;;;1.25;0.43;;;9.70;91.30;;;;;;6157769;23;20008;-76
2021/04/10 10:34:26;;;;;;;7.57;0.75;;;9.70;92.10;;;;;;6149816;23;20040;-77
2021/04/10 10:36:54;;;;;;;4.72;0.85;;;9.70;92.90;;;;;;6157163;23;20059;-76
2021/04/10 10:39:28;;;;;;;5.95;0.65;;;9.70;94.90;;;;;;6156207;23;20005;-76
2021/04/10 10:41:54;;;;;;;4.55;0.73;;;9.60;94.90;;;;;;6156439;23;20076;-75
2021/04/10 10:44:20;;;;;;;6.22;0.20;;;9.50;95.80;;;;;;6130541;23;20012;-75
2021/04/10 10:46:46;;;;;;;3.53;0.15;;;9.40;97.80;;;;;;6156001;23;19998;-75
2021/04/10 10:49:13;;;;;;;7.65;0.50;;;9.20;97.30;;;;;;6130728;23;20060;-75
2021/04/10 10:51:41;;;;;;;3.22;0.65;;;9.10;97.40;;;;;;6156121;23;20004;-76
2021/04/10 10:54:07;;;;;;;4.50;0.47;;;8.90;99.90;;;;;;6132178;23;20013;-75
2021/04/10 10:56:36;;;;;;;3.65;0.20;;;8.80;99.90;;;;;;6157500;23;20341;-75
2021/04/10 10:59:06;;;;;;;6.65;0.17;;;8.80;99.90;;;;;;6157255;23;20033;-76
2021/04/10 11:01:37;;;;;;;2.40;0.15;;;8.70;99.90;;;;;;6130929;23;20056;-76
2021/04/10 11:04:26;;;;;;;4.90;0.15;;;8.70;99.90;;;;;;6157583;23;20424;-77
2021/04/10 11:06:55;;;;;;;2.72;0.10;;;8.80;99.90;;;;;;6158159;23;20023;-77
2021/04/10 11:09:33;;;;;;;1.17;0.13;;;8.90;99.90;;;;;;6132462;23;20009;-76
2021/04/10 11:12:04;;;;;;;3.80;0.85;;;9.00;99.90;;;;;;6132593;23;19998;-75
2021/04/10 11:14:33;;;;;;;3.85;0.20;;;9.00;99.90;;;;;;6158100;23;20002;-77
2021/04/10 11:17:00;;;;;;;2.85;0.10;;;9.00;99.90;;;;;;6157953;23;20366;-78
2021/04/10 11:19:26;;;;;;;6.90;0.20;;;9.00;99.90;;;;;;6135334;23;19997;-79
2021/04/10 11:21:54;;;;;;;1.88;0.00;;;8.90;99.90;;;;;;6135848;23;20004;-77
2021/04/10 11:24:20;;;;;;;1.90;0.20;;;8.90;99.90;;;;;;6158607;23;20010;-76
2021/04/10 11:26:54;;;;;;;2.03;0.10;;;9.00;99.90;;;;;;6157830;23;20048;-78
2021/04/10 11:29:24;;;;;;;3.20;0.00;;;9.00;99.90;;;;;;6132566;23;20093;-79
2021/04/10 11:32:12;;;;;;;4.35;0.50;;;9.10;99.90;;;;;;6132702;23;20139;-76
2021/04/10 11:34:48;;;;;;;1.67;0.00;;;9.30;99.90;;;;;;6158920;23;20460;-75
2021/04/10 11:37:18;;;;;;;2.95;0.20;;;9.40;99.90;;;;;;6158195;23;20005;-75
2021/04/10 11:40:06;;;;;;;2.65;0.00;;;9.40;99.90;;;;;;6133180;23;20012;-76
2021/04/10 11:42:39;;;;;;;6.50;0.20;;;9.40;99.90;;;;;;6130096;23;20036;-74
2021/04/10 11:45:08;;;;;;;2.92;0.20;;;9.50;99.90;;;;;;6132770;23;20072;-75
2021/04/10 11:47:36;;;;;;;0.95;0.05;;;9.40;99.90;;;;;;6127504;23;20101;-75
2021/04/10 11:50:20;;;;;;;2.72;0.00;;;9.40;99.90;;;;;;6129198;23;20002;-73
2021/04/10 11:52:47;;;;;;;3.47;0.17;;;9.30;99.90;;;;;;6128759;23;20464;-78
2021/04/10 11:55:17;;;;;;;2.00;0.57;;;9.30;99.90;;;;;;6129560;23;20421;-73
2021/04/10 11:57:44;;;;;;;2.78;0.25;;;9.30;99.90;;;;;;6135385;23;20045;-76
2021/04/10 12:00:11;;;;;;;5.18;0.17;;;9.00;99.90;;;;;;6131876;23;20553;-78
2021/04/10 12:02:43;;;;;;;4.88;0.70;;;9.10;99.90;;;;;;6158447;23;20036;-77
2021/04/10 12:05:37;;;;;;;6.10;0.10;;;9.00;99.90;;;;;;6132400;23;20421;-76
2021/04/10 12:08:03;;;;;;;4.43;0.85;;;8.90;99.90;;;;;;6124893;23;20052;-76
2021/04/10 12:10:28;;;;;;;6.72;0.80;;;7.40;99.90;;;;;;6158246;23;20426;-77
2021/04/10 12:12:54;;;;;;;6.70;0.40;;;9.90;99.90;;;;;;6157155;23;20017;-80
2021/04/10 12:15:53;;;;;;;5.65;0.20;;;12.10;99.90;;;;;;6132150;23;20496;-75
2021/04/10 12:18:20;;;;;;;3.83;0.20;;;8.80;99.90;;;;;;6078481;23;20065;-77
2021/04/10 12:20:47;;;;;;;7.18;0.45;;;8.80;99.90;;;;;;6127546;23;20002;-75
2021/04/10 12:23:13;;;;;;;4.93;0.20;;;8.90;99.90;;;;;;6128477;23;20430;-75
2021/04/10 12:25:39;;;;;;;4.88;0.47;;;8.90;99.90;;;;;;6128033;23;20006;-75
2021/04/10 12:28:06;;;;;;;3.20;0.30;;;8.90;99.90;;;;;;6126069;23;20472;-79
2021/04/10 12:30:32;;;;;;;4.38;0.20;;;13.10;99.90;;;;;;6102469;23;20026;-76
2021/04/10 12:32:58;;;;;;;6.45;0.52;;;7.70;99.90;;;;;;6128222;23;20010;-76
2021/04/10 12:35:24;;;;;;;3.42;0.25;;;9.00;99.90;;;;;;6101883;23;20500;-75
2021/04/10 12:37:50;;;;;;;5.25;0.30;;;8.90;99.90;;;;;;6131526;23;20012;-79
2021/04/10 12:40:15;;;;;;;3.45;0.20;;;8.80;99.90;;;;;;6129216;23;20009;-77
2021/04/10 12:42:41;;;;;;;7.60;0.20;;;8.90;99.90;;;;;;6102533;23;20346;-75
2021/04/10 12:45:08;;;;;;;6.45;0.57;;;9.00;99.90;;;;;;6102322;23;20400;-78
2021/04/10 12:47:34;;;;;;;4.68;0.85;;;8.90;99.90;;;;;;6102864;23;20005;-76
2021/04/10 12:50:00;;;;;;;7.07;0.45;;;8.90;99.90;;;;;;6101744;23;20006;-77
2021/04/10 12:52:26;;;;;;;5.90;0.40;;;8.90;99.90;;;;;;6127510;23;20002;-78
2021/04/10 12:54:52;;;;;;;5.85;1.00;;;8.80;99.90;;;;;;6101464;23;20006;-77
2021/04/10 12:57:18;;;;;;;8.93;0.77;;;8.70;99.90;;;;;;6133471;23;20058;-80
2021/04/10 12:59:43;;;;;;;4.78;0.50;;;8.70;99.90;;;;;;6102515;23;20006;-78
2021/04/10 13:02:09;;;;;;;2.72;0.40;;;8.70;99.90;;;;;;6101490;23;20030;-77
2021/04/10 13:04:44;;;;;;;1.02;0.30;;;8.50;99.90;;;;;;6101095;23;20468;-78
2021/04/10 13:07:10;;;;;;;6.78;0.65;;;8.40;99.90;;;;;;6101230;23;20005;-78
2021/04/10 13:09:36;;;;;;;6.35;0.90;;;8.30;99.90;;;;;;6127893;23;20002;-76
2021/04/10 13:12:02;;;;;;;3.83;0.55;;;8.30;99.90;;;;;;6129965;23;20073;-78